createdAt,value
2022-12-03T00:02:33.257Z,44
2022-12-03T00:05:41.779Z,48
2022-12-03T00:09:20.838Z,44
2022-12-03T00:12:26.174Z,46
2022-12-03T00:17:22.680Z,39
2022-12-03T00:20:27.992Z,46
2022-12-03T00:23:37.148Z,44
2022-12-03T00:26:38.602Z,41
2022-12-03T00:30:21.000Z,48
2022-12-03T00:33:26.224Z,43
2022-12-03T00:36:31.583Z,49
2022-12-03T00:39:36.864Z,47
2022-12-03T00:43:19.259Z,49
2022-12-03T00:46:24.612Z,48
2022-12-03T00:49:29.871Z,58
2022-12-03T00:52:35.163Z,49
2022-12-03T00:56:17.552Z,57
2022-12-03T00:59:14.668Z,59
2022-12-03T01:02:20.086Z,60
2022-12-03T01:05:25.316Z,59
2022-12-03T01:08:30.608Z,56
2022-12-03T01:11:35.901Z,60
2022-12-03T01:15:18.294Z,58
2022-12-03T01:18:23.585Z,60
2022-12-03T01:21:28.900Z,57
2022-12-03T01:24:34.175Z,63
2022-12-03T01:28:16.588Z,66
2022-12-03T01:31:21.923Z,66
2022-12-03T01:34:27.197Z,64
2022-12-03T01:37:32.498Z,63
2022-12-03T01:40:37.824Z,65
2022-12-03T01:44:20.206Z,57
2022-12-03T01:47:25.491Z,62
2022-12-03T01:50:30.782Z,56
2022-12-03T01:53:36.112Z,61
2022-12-03T01:57:10.275Z,63
2022-12-03T01:59:38.559Z,62
2022-12-03T02:03:20.907Z,64
2022-12-03T02:08:54.486Z,64
2022-12-03T02:11:22.760Z,68
2022-12-03T02:13:51.016Z,67
2022-12-03T02:16:19.204Z,69
2022-12-03T02:18:47.444Z,66
2022-12-03T02:22:29.828Z,71
2022-12-03T02:25:35.113Z,66
2022-12-03T02:29:17.502Z,67
2022-12-03T02:32:22.793Z,70
2022-12-03T02:35:28.121Z,68
2022-12-03T02:38:33.435Z,71
2022-12-03T02:41:38.770Z,68
2022-12-03T02:45:21.121Z,71
2022-12-03T02:48:26.411Z,75
2022-12-03T02:51:31.721Z,75
2022-12-03T02:54:37.059Z,75
2022-12-03T02:57:42.356Z,71
2022-12-03T03:01:16.540Z,72
2022-12-03T03:04:21.857Z,81
2022-12-03T03:07:27.172Z,72
2022-12-03T03:10:32.470Z,76
2022-12-03T03:13:37.778Z,79
2022-12-03T03:17:20.130Z,73
2022-12-03T03:20:25.461Z,72
2022-12-03T03:23:30.764Z,73
2022-12-03T03:26:36.070Z,80
2022-12-03T03:30:18.429Z,76
2022-12-03T03:33:23.743Z,78
2022-12-03T03:36:29.070Z,81
2022-12-03T03:39:34.355Z,79
2022-12-03T03:42:39.731Z,81
2022-12-03T03:46:22.088Z,87
2022-12-03T03:49:27.348Z,96
2022-12-03T03:52:32.656Z,92
2022-12-03T03:55:37.959Z,104
2022-12-03T04:00:26.256Z,99
2022-12-03T04:03:31.575Z,104
2022-12-03T04:06:36.895Z,106
2022-12-03T04:10:19.260Z,98
2022-12-03T04:13:24.553Z,96
2022-12-03T04:16:29.943Z,90
2022-12-03T04:19:35.374Z,97
2022-12-03T04:23:17.583Z,94
2022-12-03T04:26:22.867Z,88
2022-12-03T04:29:28.259Z,103
2022-12-03T04:32:33.517Z,96
2022-12-03T04:35:38.851Z,95
2022-12-03T04:39:21.190Z,99
2022-12-03T04:44:17.684Z,104
2022-12-03T04:47:23.008Z,105
2022-12-03T04:50:28.287Z,103
2022-12-03T04:53:36.081Z,101
2022-12-03T04:56:38.889Z,101
2022-12-03T05:00:13.067Z,105
2022-12-03T05:03:18.412Z,102
2022-12-03T05:06:23.731Z,110
2022-12-03T05:09:29.017Z,103
2022-12-03T05:12:34.290Z,114
2022-12-03T05:16:16.703Z,106
2022-12-03T05:19:21.989Z,96
2022-12-03T05:22:27.303Z,114
2022-12-03T05:25:32.597Z,111
2022-12-03T05:28:37.928Z,99
2022-12-03T05:32:20.327Z,108
2022-12-03T05:35:25.608Z,110
2022-12-03T05:38:30.906Z,109
2022-12-03T05:41:36.224Z,108
2022-12-03T05:45:18.602Z,109
2022-12-03T05:48:23.911Z,111
2022-12-03T05:51:29.206Z,112
2022-12-03T05:54:34.519Z,114
2022-12-03T05:57:39.852Z,115
2022-12-03T06:01:14.010Z,117
2022-12-03T06:04:19.319Z,114
2022-12-03T06:07:24.623Z,111
2022-12-03T06:10:29.915Z,110
2022-12-03T06:13:35.229Z,112
2022-12-03T06:17:17.605Z,121
2022-12-03T06:20:22.935Z,116
2022-12-03T06:23:29.234Z,110
2022-12-03T06:26:33.549Z,120
2022-12-03T06:29:38.850Z,122
2022-12-03T06:33:21.227Z,107
2022-12-03T06:36:26.517Z,112
2022-12-03T06:39:31.841Z,112
2022-12-03T06:42:37.133Z,121
2022-12-03T06:46:19.538Z,118
2022-12-03T06:49:24.810Z,117
2022-12-03T06:52:30.197Z,124
2022-12-03T06:55:35.432Z,124
2022-12-03T06:59:09.639Z,114
2022-12-03T07:01:37.992Z,118
2022-12-03T07:05:20.237Z,108
2022-12-03T07:08:25.568Z,116
2022-12-03T07:11:30.923Z,117
2022-12-03T07:14:36.168Z,120
2022-12-03T07:18:18.570Z,128
2022-12-03T07:21:23.863Z,114
2022-12-03T07:24:29.192Z,122
2022-12-03T07:27:34.458Z,138
2022-12-03T07:30:39.818Z,128
2022-12-03T07:34:22.139Z,123
2022-12-03T07:37:27.478Z,110
2022-12-03T07:40:32.794Z,119
2022-12-03T07:43:38.095Z,120
2022-12-03T07:47:20.415Z,131
2022-12-03T07:50:25.748Z,123
2022-12-03T07:53:31.097Z,136
2022-12-03T07:56:36.395Z,113
2022-12-03T08:01:24.779Z,128
2022-12-03T08:04:30.037Z,127
2022-12-03T08:07:35.366Z,121
2022-12-03T08:11:17.724Z,125
2022-12-03T08:14:22.985Z,126
2022-12-03T08:17:28.304Z,128
2022-12-03T08:20:33.596Z,124
2022-12-03T08:23:38.934Z,127
2022-12-03T08:27:21.277Z,123
2022-12-03T08:30:26.604Z,119
2022-12-03T08:33:31.954Z,127
2022-12-03T08:36:37.208Z,125
2022-12-03T08:40:19.581Z,123
2022-12-03T08:43:24.879Z,134
2022-12-03T08:46:30.211Z,123
2022-12-03T08:49:35.535Z,122
2022-12-03T08:53:17.899Z,111
2022-12-03T08:56:23.149Z,120
2022-12-03T09:01:11.604Z,118
2022-12-03T09:04:16.899Z,126
2022-12-03T09:07:22.091Z,114
2022-12-03T09:10:27.429Z,123
2022-12-03T09:13:32.726Z,116
2022-12-03T09:16:38.061Z,114
2022-12-03T09:20:20.433Z,109
2022-12-03T09:23:25.720Z,123
2022-12-03T09:26:31.067Z,126
2022-12-03T09:29:36.356Z,123
2022-12-03T09:33:18.733Z,114
2022-12-03T09:36:24.021Z,116
2022-12-03T09:39:29.357Z,114
2022-12-03T09:42:34.669Z,120
2022-12-03T09:46:17.044Z,118
2022-12-03T09:49:22.305Z,113
2022-12-03T09:52:27.641Z,121
2022-12-03T09:55:32.930Z,120
2022-12-03T09:58:38.246Z,116
2022-12-03T10:02:12.461Z,111
2022-12-03T10:05:17.765Z,125
2022-12-03T10:08:23.077Z,128
2022-12-03T10:11:28.343Z,122
2022-12-03T10:14:33.707Z,126
2022-12-03T10:17:38.997Z,115
2022-12-03T10:21:21.355Z,119
2022-12-03T10:24:26.648Z,114
2022-12-03T10:27:31.996Z,117
2022-12-03T10:30:37.360Z,127
2022-12-03T10:34:19.682Z,118
2022-12-03T10:37:24.950Z,123
2022-12-03T10:40:30.290Z,114
2022-12-03T10:43:35.546Z,118
2022-12-03T10:47:18.164Z,120
2022-12-03T10:50:23.247Z,126
2022-12-03T10:53:28.529Z,121
2022-12-03T10:56:33.874Z,124
2022-12-03T11:00:16.278Z,129
2022-12-03T11:03:21.636Z,124
2022-12-03T11:06:26.893Z,124
2022-12-03T11:09:32.184Z,125
2022-12-03T11:12:29.275Z,115
2022-12-03T11:15:34.594Z,129
2022-12-03T11:18:39.897Z,116
2022-12-03T11:22:22.235Z,118
2022-12-03T11:25:27.595Z,119
2022-12-03T11:28:32.883Z,125
2022-12-03T11:31:38.313Z,121
2022-12-03T11:35:20.562Z,129
2022-12-03T11:38:25.879Z,129
2022-12-03T11:41:31.200Z,127
2022-12-03T11:44:36.485Z,122
2022-12-03T11:48:18.919Z,132
2022-12-03T11:51:24.198Z,130
2022-12-03T11:54:29.468Z,114
2022-12-03T11:57:34.780Z,117
2022-12-03T12:01:17.187Z,123
2022-12-03T12:04:22.508Z,130
2022-12-03T12:07:27.865Z,125
2022-12-03T12:10:33.093Z,119
2022-12-03T12:13:30.215Z,118
2022-12-03T12:16:35.587Z,124
2022-12-03T12:20:17.869Z,127
2022-12-03T12:23:23.216Z,127
2022-12-03T12:26:28.538Z,127
2022-12-03T12:29:33.801Z,130
2022-12-03T12:33:16.163Z,119
2022-12-03T12:36:21.516Z,123
2022-12-03T12:39:26.786Z,121
2022-12-03T12:42:32.177Z,127
2022-12-03T12:45:37.455Z,120
2022-12-03T12:49:19.808Z,123
2022-12-03T12:52:25.087Z,103
2022-12-03T12:55:30.436Z,115
2022-12-03T12:58:35.725Z,113
2022-12-03T13:02:18.136Z,121
2022-12-03T13:05:23.414Z,116
2022-12-03T13:08:28.760Z,130
2022-12-03T13:13:17.060Z,119
2022-12-03T13:16:22.411Z,128
2022-12-03T13:19:27.661Z,133
2022-12-03T13:22:32.957Z,132
2022-12-03T13:25:59.106Z,119
2022-12-03T13:29:20.596Z,127
2022-12-03T13:32:25.972Z,114
2022-12-03T13:35:31.236Z,129
2022-12-03T13:38:36.549Z,117
2022-12-03T13:42:18.924Z,119
2022-12-03T13:45:24.235Z,130
2022-12-03T13:48:29.526Z,123
2022-12-03T13:51:34.857Z,132
2022-12-03T13:55:17.238Z,118
2022-12-03T13:58:22.546Z,137
2022-12-03T14:01:27.912Z,127
2022-12-03T14:04:33.165Z,129
2022-12-03T14:07:38.541Z,133
2022-12-03T14:12:34.936Z,141
2022-12-03T14:16:17.366Z,134
2022-12-03T14:19:22.676Z,126
2022-12-03T14:24:10.928Z,128
2022-12-03T14:27:16.264Z,136
2022-12-03T14:30:21.613Z,142
2022-12-03T14:33:26.885Z,134
2022-12-03T14:36:32.197Z,115
2022-12-03T14:39:37.480Z,122
2022-12-03T14:43:19.886Z,146
2022-12-03T14:46:25.283Z,134
2022-12-03T14:49:30.487Z,130
2022-12-03T14:52:35.796Z,140
2022-12-03T14:56:18.176Z,136
2022-12-03T14:59:27.558Z,143
2022-12-03T15:02:28.849Z,127
2022-12-03T15:05:34.132Z,144
2022-12-03T15:09:17.539Z,143
2022-12-03T15:12:21.777Z,150
2022-12-03T15:15:27.111Z,146
2022-12-03T15:18:32.369Z,153
2022-12-03T15:21:37.683Z,150
2022-12-03T15:24:34.822Z,161
2022-12-03T15:28:17.197Z,152
2022-12-03T15:31:22.601Z,147
2022-12-03T15:34:27.806Z,146
2022-12-03T15:37:33.145Z,132
2022-12-03T15:40:38.450Z,139
2022-12-03T15:44:20.791Z,142
2022-12-03T15:47:26.155Z,143
2022-12-03T15:50:34.561Z,140
2022-12-03T15:53:36.720Z,141
2022-12-03T15:57:19.216Z,154
2022-12-03T16:00:24.431Z,150
2022-12-03T16:03:29.790Z,150
2022-12-03T16:06:35.025Z,144
2022-12-03T16:10:17.398Z,148
2022-12-03T16:13:22.742Z,152
2022-12-03T16:16:28.096Z,155
2022-12-03T16:19:33.357Z,148
2022-12-03T16:22:38.633Z,151
2022-12-03T16:26:12.796Z,137
2022-12-03T16:29:18.142Z,147
2022-12-03T16:32:23.438Z,134
2022-12-03T16:35:28.728Z,148
2022-12-03T16:38:34.094Z,152
2022-12-03T16:42:17.393Z,155
2022-12-03T16:45:21.696Z,160
2022-12-03T16:48:27.024Z,143
2022-12-03T16:51:32.364Z,137
2022-12-03T16:54:37.651Z,150
2022-12-03T16:58:20.041Z,145
2022-12-03T17:01:25.372Z,146
2022-12-03T17:04:30.645Z,149
2022-12-03T17:07:36.010Z,149
2022-12-03T17:11:18.310Z,148
2022-12-03T17:14:26.270Z,137
2022-12-03T17:17:28.936Z,143
2022-12-03T17:20:34.270Z,143
2022-12-03T17:25:22.552Z,151
2022-12-03T17:28:27.879Z,139
2022-12-03T17:31:37.046Z,146
2022-12-03T17:34:38.468Z,150
2022-12-03T17:38:20.861Z,142
2022-12-03T17:41:26.163Z,134
2022-12-03T17:44:31.482Z,148
2022-12-03T17:47:36.756Z,146
2022-12-03T17:51:19.138Z,139
2022-12-03T17:54:30.475Z,154
2022-12-03T17:57:29.744Z,147
2022-12-03T18:00:35.074Z,150
2022-12-03T18:04:17.543Z,142
2022-12-03T18:07:22.813Z,137
2022-12-03T18:10:28.161Z,144
2022-12-03T18:13:33.430Z,136
2022-12-03T18:16:38.755Z,142
2022-12-03T18:20:21.040Z,137
2022-12-03T18:23:26.360Z,144
2022-12-03T18:26:23.518Z,146
2022-12-03T18:29:28.839Z,140
2022-12-03T18:32:34.251Z,152
2022-12-03T18:35:39.389Z,143
2022-12-03T18:39:21.782Z,157
2022-12-03T18:42:27.128Z,148
2022-12-03T18:45:32.424Z,145
2022-12-03T18:48:37.699Z,144
2022-12-03T18:51:05.938Z,144
2022-12-03T18:53:34.202Z,146
2022-12-03T18:56:39.539Z,147
2022-12-03T19:03:27.535Z,146
2022-12-03T19:06:32.480Z,150
2022-12-03T19:09:37.827Z,163
2022-12-03T19:13:20.229Z,155
2022-12-03T19:16:25.537Z,160
2022-12-03T19:19:30.829Z,157
2022-12-03T19:22:36.114Z,160
2022-12-03T19:27:24.409Z,155
2022-12-03T19:30:29.711Z,158
2022-12-03T19:33:35.071Z,161
2022-12-03T19:37:17.410Z,157
2022-12-03T19:40:22.722Z,149
2022-12-03T19:43:28.033Z,146
2022-12-03T19:46:33.335Z,153
2022-12-03T19:49:38.641Z,163
2022-12-03T19:53:21.010Z,140
2022-12-03T19:56:26.355Z,148
2022-12-03T19:59:31.631Z,144
2022-12-03T20:02:37.002Z,138
2022-12-03T20:06:19.348Z,130
2022-12-03T20:09:24.649Z,135
2022-12-03T20:12:29.930Z,139
2022-12-03T20:15:35.248Z,141
2022-12-03T20:19:17.610Z,129
2022-12-03T20:22:22.900Z,114
2022-12-03T20:25:28.244Z,131
2022-12-03T20:29:10.597Z,123
2022-12-03T20:31:38.899Z,125
2022-12-03T20:35:21.210Z,117
2022-12-03T20:38:18.336Z,118
2022-12-03T20:41:23.655Z,118
2022-12-03T20:44:28.977Z,108
2022-12-03T20:47:34.270Z,122
2022-12-03T20:50:39.623Z,120
2022-12-03T20:54:21.949Z,113
2022-12-03T20:57:27.245Z,136
2022-12-03T21:00:32.641Z,127
2022-12-03T21:03:37.849Z,120
2022-12-03T21:07:20.242Z,125
2022-12-03T21:10:25.566Z,118
2022-12-03T21:13:32.356Z,117
2022-12-03T21:16:59.622Z,118
2022-12-03T21:20:21.133Z,122
2022-12-03T21:23:23.839Z,124
2022-12-03T21:26:29.182Z,125
2022-12-03T21:29:34.459Z,118
2022-12-03T21:33:16.838Z,128
2022-12-03T21:36:22.159Z,120
2022-12-03T21:39:27.445Z,127
2022-12-03T21:42:36.295Z,113
2022-12-03T21:45:38.068Z,120
2022-12-03T21:49:12.251Z,130
2022-12-03T21:52:17.575Z,132
2022-12-03T21:55:22.888Z,131
2022-12-03T21:58:28.194Z,134
2022-12-03T22:01:33.560Z,130
2022-12-03T22:04:38.820Z,111
2022-12-03T22:08:21.207Z,122
2022-12-03T22:11:26.466Z,117
2022-12-03T22:14:31.805Z,115
2022-12-03T22:17:37.109Z,113
2022-12-03T22:21:19.453Z,122
2022-12-03T22:24:24.823Z,120
2022-12-03T22:27:30.082Z,119
2022-12-03T22:30:35.424Z,124
2022-12-03T22:34:17.772Z,115
2022-12-03T22:37:23.064Z,114
2022-12-03T22:40:28.415Z,125
2022-12-03T22:43:33.709Z,112
2022-12-03T22:48:22.006Z,113
2022-12-03T22:53:18.495Z,123
2022-12-03T22:56:23.835Z,119
2022-12-03T22:59:29.123Z,124
2022-12-03T23:02:34.478Z,116
2022-12-03T23:06:16.820Z,117
2022-12-03T23:09:22.102Z,122
2022-12-03T23:12:27.410Z,127
2022-12-03T23:15:32.752Z,119
2022-12-03T23:18:38.016Z,126
2022-12-03T23:22:20.414Z,129
2022-12-03T23:25:25.737Z,129
2022-12-03T23:30:22.245Z,121
2022-12-03T23:33:27.496Z,128
2022-12-03T23:36:32.826Z,124
2022-12-03T23:39:38.128Z,123
2022-12-03T23:43:20.504Z,124
2022-12-03T23:46:25.897Z,123
2022-12-03T23:49:22.917Z,126
2022-12-03T23:52:28.277Z,116
2022-12-03T23:55:33.573Z,121
2022-12-03T23:58:38.857Z,116
